map of PEV home
PEV - Airport
Location
City:  Pécs, Baranya, Hungary
Name:Pécs-Pogány International Airport
Old (Alt.):Pécs South Airport
ICAO:LHPP
IATA:PEV

Details
Type:Airport (Aerodrome, Airfield)
Use:International (customs port of entry)
Latitude:45°59'27"N (45.990928)
Longitude:18°14'28"E (18.240983)
Datum:WGS 1984
Elevation:1000 ft (305 m)
Variation:4.64°E (WMM2015v2 magnetic declination)
0.14° annual change
Runways:1
Longest:4922 × 98 ft (1500 × 30 m), paved

Time
Time Zone:UTC+1 (DST+2)
Local Time:

Weather
METAR:LHPP 041345Z 36011KT 9999 SCT033 BKN200 05/M02 Q1029

Related Locations
Nearby:
Farthest:CHT: 11704 mi / 18836 km
Waitangi [Tuuta], CIT, NZ

Find:

   beyond  
but within

Other Information
Maps:
NOTAMs:
Links:
Sources:

  
  • flag of Hungary
  • flag of Baranya
  

Sectional Chart

Flight Planning
at skyvector.com

Satellite Image

Google Maps Satellite view

 

Copyright © 2004-2019 Karl L. Swartz. All rights reserved.
The Great Circle Mapper name and logo are trademarks of the Great Circle Mapper.
All other trademarks mentioned herein belong to their respective owners.
Please see credits for attibutions and further copyright information.

  Follow gcmap on Facebook Follow gcmap on Twitter GCmap on LinkedIn

hCard Microformat

Geo Microformat